Northern & Central Napa County

32 Stations

15 Minute Data | America/Los_Angeles
as of 5/5/26 3:33 PM PDT
Station Date Time Temp (°F) RH (%) Dew Pt (°F) Wind Spd (mph) Wind Dir (°) Wind Gust (mph) Latest Rain (In) Daily Rain (In) Daily Max Temp (°F) Daily Min Temp (°F)
Calistoga-North 5/5/26 1530 63.7   7.3 71   18 54.3   1.0 - - - 0.00 0.02 66.8   3.4 51.9   3.7
Stags Leap Dist (Chimney Rock) 5/5/26 1530 66.0   4.6 70   1 55.8   4.6 3.3   1.4 SSE | 149 7.5   2.3 0.00 0.01 66.8   1.6 52.9   10.1
Diamond Mtn (McEachran) 5/5/26 1530 62.6   7.3 71   16 52.9   1.4 - - - - - 63.5   1.1 51.1   3.7
Diamond Mtn (Schramsberg) 5/5/26 1530 62.9   8.5 72   15 53.8   3.1 - - - 0.00 0.01 65.1   1.0 49.8   2.4
Stags Leap Dist (Silverado Vineyards) 5/5/26 1530 65.1   4.3 64   5 52.8   2.3 3.7   3.2 ESE | 121 8.5   5.9 0.00 0.02 67.4   2.4 51.9   8.3
Oak Knoll-East (Ranch 53) 5/5/26 1530 66.3   4.8 62   2 52.9   5.6 2.1   2.0 SSW | 212 6.1   2.9 0.00 0.02 67.9   2.4 52.5   8.7
Rutherford-North (Mee Ln) 5/5/26 1530 69.5   9.7 60   12 54.8   4.1 2.2   1.1 NNW | 345 5.7   2.6 0.00 0.02 71.1   2.3 47.7   6.4
Frisinger Napa-NW 5/5/26 1530 65.8   5.3 69   1 55.5   5.3 5.8   1.3 SW | 223 9.5   2.4 0.00 0.02 66.7   0.8 52.8   8.0
Napa-North (Ranch 29) 5/5/26 1530 65.4   3.8 66   7 53.6   6.6 1.7   3.3 SSE | 156 5.9   3.1 0.00 0.02 66.0   1.3 52.1   7.7
St. Helena (NVV Office) 5/5/26 1530 68.0   9.5 - - 2.0   0.3 WNW | 285 6.6   0.3 0.00 0.02 69.6   0.5 52.9   6.8
Crossroads Ranch 5/5/26 1530 67.5   7.1 65   6 55.2   4.3 3.1   0.5 WSW | 247 8.3   0.4 0.00 0.01 68.4   1.8 52.7   9.1
Oakville 5/5/26 1530 67.8   7.5 60   8 53.4   3.7 3.8   1.2 SW | 230 8.6   0.9 0.00 0.16 68.1   1.2 52.4   8.8
OV561-East 5/5/26 1530 67.9   7.4 - - - - - - - 68.8   2.5 52.7   8.5
OV518-West 5/5/26 1530 67.2   6.8 - - - - - - - 67.7   1.1 52.5   8.9
Napa-NW (Ranch 54) 5/5/26 1530 69.0   7.1 59   2 54.0   5.7 1.8   0.6 SSW | 196 5.2   2.6 0.00 0.01 69.5   0.5 52.9   7.6
Calistoga (Ranch 78) 5/5/26 1530 65.9   8.7 66   21 54.2   1.0 6.3   3.0 NW | 316 11.8   5.5 0.00 0.02 67.2   1.3 52.6   6.1
Yountville-SE (Ranch 85) 5/5/26 1530 65.7   4.2 67   1 54.6   4.3 3.5   2.7 S | 170 7.8   3.1 0.00 0.01 67.4   1.9 52.6   8.8
Yountville-South (Ranch 87) 5/5/26 1530 66.0   4.9 66   2 54.4   3.8 2.9   0.9 SSE | 156 7.0   0.1 0.00 0.02 68.0   2.5 52.5   8.9
Rutherford Hill Estate 5/5/26 1530 69.3   10.5 61   15 55.1   3.9 2.3   1.6 W | 280 7.7   5.0 0.00 0.01 70.8   4.0 51.2   4.4
Rutherford (STS) 5/5/26 1530 69.1   9.4 68   11 58.0   5.0 2.3   1.3 WSW | 241 6.9   1.8 0.00 0.11 70.9   2.9 52.3   9.4
Borreo (Soda Canyon) 5/5/26 1530 62.8   3.8 68   4 52.3   5.3 2.7   0.2 SSE | 161 5.6   0.1 0.00 0.02 63.8   2.0 50.3   8.7
Oakville-NE (Ranch 88) 5/5/26 1530 68.7   8.0 59   9 53.7   3.8 4.0   3.0 W | 260 8.6   3.8 0.00 0.02 70.4   1.7 52.2   9.6
Soda Canyon 5/5/26 1530 64.7   3.2 72   6 55.6   5.6 2.8   1.3 SE | 139 6.5   1.5 0.00 0.01 65.7   1.9 52.5   12.1
Silver Oak OV 5/5/26 1530 68.2   7.7 62   7 54.5   4.3 3.5   0.8 SW | 230 7.1   3.0 0.00 0.02 68.7   1.6 52.6   9.8
Tiara Fria (East St. Helena) 5/5/26 1530 67.8   8.2 63   15 55.0   2.1 4.3   2.1 WNW | 296 9.0   3.7 0.00 0.01 68.0   1.1 52.9   7.1
To Kalon Remote (TKKE) 5/5/26 1530 68.5   8.5 - - - - - - - 69.2   0.5 52.9   9.9
To Kalon 5/5/26 1530 68.7   9.2 61   11 54.8   4.3 3.3   0.2 WSW | 258 7.8   0.0 0.00 0.02 69.0   2.2 52.4   8.8
To Kalon Remote (TKN5) 5/5/26 1530 69.1   9.2 - - - - - - - 69.5   2.3 52.8   9.3
St. Helena-North 5/5/26 1530 69.9   12.0 56   26 53.4   1.1 2.4   0.8 NW | 320 6.1   2.2 0.00 0.01 70.6   3.4 52.6   6.2
Twomey Calistoga 5/5/26 1530 66.7   9.0 63   24 53.8   0.2 3.6   1.9 WNW | 292 7.9   2.8 0.00 0.02 67.5   2.2 52.3   7.0
Wappo Hill Floor 5/5/26 1530 66.1   4.7 66   3 54.4   3.1 3.2   0.5 SSE | 152 7.2   0.5 0.00 0.03 67.8   1.5 50.2   8.0
Yountville (Ranch 67) 5/5/26 1530 65.4   5.1 64   3 52.9   3.4 3.8   0.6 SSE | 153 6.7   1.2 0.00 0.03 66.9   1.7 51.7   8.5
Max     69.9 72 58.0 6.3 - 11.8 0.00 0.16 71.1 52.9
Avg     66.8 65 54.3 3.2 - 7.4 0.00 - - -
Min     62.6 56 52.3 1.7 - 5.2 0.00 0.01 63.5 47.7